金門航空站 - ATIS

METAR RCBS 252130Z 35004KT 5000 BR FEW010 BKN020 BKN080 24/23 Q1010 NOSIG RMK A2984(D)=

站台狀態:Online
最後更新:2019-05-26 05:45:01